Aérodrome :
LOGIN :

S'inscrire | Disclaimer

   EN    FR    IT 

 










Légende :    VFR   VFR Marginal   IFR   IFR Intensif   IFR Très Intensif
Visi : 
Plafond : 
>= 8 km
>= 3000ft
5 à 8 km
1000 à 3000 ft
1500m à 5 km
500 à 1000 ft
800 à 1500m
200 à 500 ft
< 800m
< 200 ft
Symboles :   Orages  Brouillard  Fortes neiges  Fortes précipitations  Vent > 20 kt
SIGMETs :   Divers  Orages  Givrage  Turbulence  Onde Orograph.  Cendres Volcan.






- Altitude de l'aérodrome : 83 ft
- Code IATA : LHR


EGLL - London Heathrow

DERNIER METAR :
  • 250720Z AUTO VRB02KT 9999 NCD 20/13 Q1017 NOSIG

METARs EXPIRÉS :
  • 250650Z AUTO VRB02KT 9999 NCD 19/12 Q1017 NOSIG
  • 250620Z AUTO VRB02KT 9999 NCD 19/13 Q1017
  • 250550Z AUTO 12002KT 9999 NCD 17/13 Q1017 NOSIG
  • 250520Z AUTO VRB01KT 9999 NCD 17/13 Q1017 NOSIG
  • 250450Z AUTO 13002KT 9999 NCD 15/13 Q1017
  • 250420Z AUTO 12004KT 080V170 9999 NCD 14/12 Q1017
  • 250350Z AUTO 13003KT 9999 NCD 14/12 Q1017
  • 250320Z AUTO 14003KT 9999 NCD 14/12 Q1017 NOSIG
  • 250250Z AUTO 16003KT 9999 NCD 15/13 Q1017

TAF TAF EGLL
Valide du 25 à 06h jusqu'au 26 à 12h UTC


250455Z 2506/2612 13004KT CAVOK



MET'MAP, la Météo Aéronautique d'un coup d'oeil ! - Copyright ORBIFLY Décembre 2007 - Disclaimer

ORBIFLY MET'MAP TEAM :

Programmation & Développement : Alexandra Zaïnal
Sur une idée originale de : Baudouin d'Aumeries
Soutien technique & logistique : Manuel Goepfert
Assistance : Marc-Olivier Méhu




SOURCES & CREDITS :

   NOAA